Hetton le Hole, United Kingdom
Current Conditions -  °F | °C
As of 11:20 PM on Saturday 25 Oct 2014 (Local Time) from EGNT Reporting Station
Broken Clouds Broken Clouds  
Wind Chill: 55°   Ceiling: 4900
Heat Index: 55°   Visibility: 6mi
Dew Point: 43°   Wind: 16mph
Humidity: 63%   Direction: 230°SW
Pressure: 29.8"   Gusts: 28mph
Location:  54.82°N, 1.45°W
Report Text: EGNT 252220Z 23014G24KT 200V260 9999 SCT046 BKN049 13/06 Q1009
Loading
Personal Weather Stations






























Interactive Weather Map New forecast layout! Learn more

10-Day Weather Forecast

Advertisements
Track Severe Weather on mobile